createdAt,value
2023-04-22T00:01:09.983Z,10.63
2023-04-22T00:03:39.026Z,10.63
2023-04-22T00:06:07.013Z,10.69
2023-04-22T00:08:34.724Z,10.73
2023-04-22T00:11:02.502Z,10.75
2023-04-22T00:13:30.252Z,10.80
2023-04-22T00:15:58.006Z,10.73
2023-04-22T00:18:26.181Z,10.75
2023-04-22T00:20:53.630Z,10.78
2023-04-22T00:23:21.168Z,10.78
2023-04-22T00:25:48.593Z,10.79
2023-04-22T00:28:16.163Z,10.78
2023-04-22T00:30:43.641Z,10.81
2023-04-22T00:33:11.270Z,10.83
2023-04-22T00:35:38.748Z,10.82
2023-04-22T00:38:06.308Z,10.80
2023-04-22T00:40:33.850Z,10.75
2023-04-22T00:43:02.952Z,10.73
2023-04-22T00:45:31.537Z,10.75
2023-04-22T00:48:00.359Z,10.55
2023-04-22T00:50:28.355Z,10.29
2023-04-22T00:52:56.343Z,10.14
2023-04-22T00:55:23.948Z,10.01
2023-04-22T00:57:52.418Z,9.93
2023-04-22T01:00:20.463Z,9.83
2023-04-22T01:02:48.220Z,9.74
2023-04-22T01:05:16.365Z,9.68
2023-04-22T01:07:43.992Z,9.68
2023-04-22T01:10:11.639Z,9.70
2023-04-22T01:12:39.160Z,9.72
2023-04-22T01:15:07.702Z,9.68
2023-04-22T01:17:36.147Z,9.65
2023-04-22T01:20:10.162Z,9.62
2023-04-22T01:22:44.581Z,9.63
2023-04-22T01:25:12.569Z,9.55
2023-04-22T01:27:41.143Z,9.46
2023-04-22T01:30:10.088Z,9.44
2023-04-22T01:32:40.906Z,9.41
2023-04-22T01:35:09.892Z,9.45
2023-04-22T01:37:37.711Z,9.47
2023-04-22T01:40:06.181Z,9.39
2023-04-22T01:42:33.735Z,9.36
2023-04-22T01:45:01.313Z,9.27
2023-04-22T01:47:28.982Z,9.21
2023-04-22T01:49:56.528Z,9.15
2023-04-22T01:52:24.076Z,9.16
2023-04-22T01:54:51.714Z,9.17
2023-04-22T01:57:19.396Z,9.21
2023-04-22T01:59:46.939Z,9.27
2023-04-22T02:02:15.500Z,9.28
2023-04-22T02:04:43.007Z,9.29
2023-04-22T02:07:10.458Z,9.32
2023-04-22T02:09:39.109Z,9.30
2023-04-22T02:12:07.438Z,9.32
2023-04-22T02:14:35.136Z,9.35
2023-04-22T02:17:03.991Z,9.32
2023-04-22T02:19:31.500Z,9.32
2023-04-22T02:21:59.624Z,9.48
2023-04-22T02:24:27.214Z,9.55
2023-04-22T02:26:54.638Z,9.41
2023-04-22T02:29:22.207Z,9.26
2023-04-22T02:31:49.729Z,9.28
2023-04-22T02:34:17.441Z,9.19
2023-04-22T02:36:44.868Z,9.16
2023-04-22T02:39:12.652Z,9.15
2023-04-22T02:41:40.409Z,9.05
2023-04-22T02:44:07.994Z,9.01
2023-04-22T02:46:35.504Z,8.98
2023-04-22T02:49:03.084Z,9.02
2023-04-22T02:51:31.242Z,8.96
2023-04-22T02:53:58.746Z,8.90
2023-04-22T02:56:27.476Z,8.90
2023-04-22T02:58:55.030Z,8.85
2023-04-22T03:01:22.618Z,8.91
2023-04-22T03:03:50.806Z,8.90
2023-04-22T03:06:23.090Z,8.85
2023-04-22T03:08:51.031Z,8.90
2023-04-22T03:11:18.489Z,8.82
2023-04-22T03:13:45.967Z,8.84
2023-04-22T03:16:13.472Z,8.77
2023-04-22T03:18:41.865Z,8.63
2023-04-22T03:21:10.824Z,8.45
2023-04-22T03:23:41.160Z,8.46
2023-04-22T03:26:09.156Z,8.47
2023-04-22T03:28:36.896Z,8.46
2023-04-22T03:31:04.643Z,8.47
2023-04-22T03:33:32.145Z,8.51
2023-04-22T03:36:06.409Z,8.54
2023-04-22T03:38:34.370Z,8.55
2023-04-22T03:41:01.934Z,8.62
2023-04-22T03:43:42.039Z,8.67
2023-04-22T03:46:11.025Z,8.73
2023-04-22T03:48:45.888Z,8.78
2023-04-22T03:51:23.074Z,8.80
2023-04-22T03:53:50.698Z,8.79
2023-04-22T03:56:21.558Z,8.86
2023-04-22T03:58:51.001Z,8.92
2023-04-22T04:01:18.622Z,9.09
2023-04-22T04:03:51.135Z,9.21
2023-04-22T04:06:20.251Z,9.31
2023-04-22T04:08:47.712Z,9.39
2023-04-22T04:11:15.963Z,9.55
2023-04-22T04:13:43.403Z,9.72
2023-04-22T04:16:25.750Z,10.01
2023-04-22T04:19:00.168Z,10.30
2023-04-22T04:21:29.507Z,10.54
2023-04-22T04:23:56.998Z,10.92
2023-04-22T04:26:27.987Z,11.25
2023-04-22T04:29:03.020Z,11.74
2023-04-22T04:31:30.605Z,12.16
2023-04-22T04:34:00.469Z,12.51
2023-04-22T04:36:29.505Z,13.11
2023-04-22T04:39:08.478Z,13.70
2023-04-22T04:41:38.870Z,14.20
2023-04-22T04:44:08.719Z,14.45
2023-04-22T04:46:39.681Z,14.80
2023-04-22T04:49:09.729Z,14.97
2023-04-22T04:51:46.366Z,14.84
2023-04-22T04:54:14.038Z,15.17
2023-04-22T04:56:42.769Z,15.27
2023-04-22T04:59:11.497Z,15.70
2023-04-22T05:01:40.720Z,16.32
2023-04-22T05:04:12.185Z,16.65
2023-04-22T05:06:42.212Z,17.02
2023-04-22T05:09:10.253Z,17.06
2023-04-22T05:11:38.168Z,17.62
2023-04-22T05:14:12.764Z,18.00
2023-04-22T05:16:42.766Z,18.22
2023-04-22T05:19:10.822Z,18.39
2023-04-22T05:21:38.693Z,18.72
2023-04-22T05:24:06.617Z,18.88
2023-04-22T05:26:34.388Z,18.77
2023-04-22T05:29:07.290Z,18.48
2023-04-22T05:31:34.867Z,18.42
2023-04-22T05:34:02.292Z,18.26
2023-04-22T05:36:31.532Z,18.11
2023-04-22T05:38:59.987Z,17.67
2023-04-22T05:41:28.539Z,17.62
2023-04-22T05:43:58.398Z,17.81
2023-04-22T05:46:26.518Z,18.08
2023-04-22T05:48:55.921Z,17.57
2023-04-22T05:51:43.587Z,17.73
2023-04-22T05:54:13.731Z,17.87
2023-04-22T05:56:41.438Z,18.27
2023-04-22T05:59:09.155Z,18.46
2023-04-22T06:01:37.507Z,18.48
2023-04-22T06:04:11.898Z,18.98
2023-04-22T06:06:39.888Z,19.23
2023-04-22T06:09:07.707Z,18.90
2023-04-22T06:11:35.172Z,19.25
2023-04-22T06:14:02.653Z,19.28
2023-04-22T06:16:31.498Z,19.19
2023-04-22T06:18:59.273Z,19.15
2023-04-22T06:21:27.358Z,19.13
2023-04-22T06:23:54.841Z,18.79
2023-04-22T06:26:22.363Z,18.56
2023-04-22T06:28:49.927Z,18.68
2023-04-22T06:31:21.156Z,18.92
2023-04-22T06:33:49.386Z,18.82
2023-04-22T06:36:18.411Z,18.75
2023-04-22T06:38:52.535Z,18.44
2023-04-22T06:41:46.017Z,18.16
2023-04-22T06:44:32.303Z,18.82
2023-04-22T06:47:18.455Z,19.07
2023-04-22T06:49:53.739Z,19.00
2023-04-22T06:52:24.934Z,19.12
2023-04-22T06:54:55.539Z,19.05
2023-04-22T06:57:23.203Z,19.26
2023-04-22T06:59:51.059Z,19.41
2023-04-22T07:02:19.209Z,19.40
2023-04-22T07:04:46.824Z,19.63
2023-04-22T07:07:14.645Z,19.62
2023-04-22T07:09:42.478Z,19.66
2023-04-22T07:12:10.296Z,19.66
2023-04-22T07:14:38.201Z,19.48
2023-04-22T07:17:05.833Z,19.39
2023-04-22T07:19:34.791Z,19.58
2023-04-22T07:22:07.016Z,19.67
2023-04-22T07:24:34.502Z,19.46
2023-04-22T07:27:02.556Z,19.23
2023-04-22T07:29:30.127Z,19.69
2023-04-22T07:31:57.870Z,19.53
2023-04-22T07:34:25.375Z,19.66
2023-04-22T07:36:54.155Z,20.13
2023-04-22T07:39:22.974Z,19.77
2023-04-22T07:41:51.346Z,20.33
2023-04-22T07:44:21.708Z,20.29
2023-04-22T07:46:50.391Z,20.73
2023-04-22T07:49:17.926Z,20.60
2023-04-22T07:51:45.708Z,20.25
2023-04-22T07:54:13.196Z,20.80
2023-04-22T07:56:40.914Z,21.02
2023-04-22T07:59:08.501Z,20.77
2023-04-22T08:01:36.094Z,20.93
2023-04-22T08:04:03.903Z,20.86
2023-04-22T08:06:32.128Z,20.89
2023-04-22T08:08:59.750Z,20.73
2023-04-22T08:11:27.227Z,20.58
2023-04-22T08:13:54.635Z,20.80
2023-04-22T08:16:22.295Z,20.57
2023-04-22T08:18:49.792Z,20.55
2023-04-22T08:21:17.332Z,20.63
2023-04-22T08:23:44.782Z,20.69
2023-04-22T08:26:15.242Z,20.33
2023-04-22T08:28:42.948Z,20.83
2023-04-22T08:31:12.088Z,20.76
2023-04-22T08:33:42.565Z,21.03
2023-04-22T08:36:11.276Z,20.92
2023-04-22T08:38:38.689Z,21.02
2023-04-22T08:41:07.316Z,21.07
2023-04-22T08:43:35.673Z,21.08
2023-04-22T08:46:03.192Z,21.01
2023-04-22T08:48:32.349Z,20.68
2023-04-22T08:51:00.424Z,20.48
2023-04-22T08:53:27.920Z,20.26
2023-04-22T08:55:56.657Z,20.97
2023-04-22T08:58:24.617Z,21.65
2023-04-22T09:00:52.864Z,21.77
2023-04-22T09:03:21.989Z,21.47
2023-04-22T09:05:52.963Z,21.87
2023-04-22T09:08:20.986Z,22.07
2023-04-22T09:10:48.895Z,22.00
2023-04-22T09:13:17.886Z,22.22
2023-04-22T09:15:45.472Z,22.03
2023-04-22T09:18:16.901Z,22.09
2023-04-22T09:20:44.557Z,22.02
2023-04-22T09:23:13.162Z,21.84
2023-04-22T09:25:41.008Z,22.04
2023-04-22T09:28:12.451Z,21.48
2023-04-22T09:30:39.905Z,21.49
2023-04-22T09:33:08.127Z,21.62
2023-04-22T09:35:41.190Z,21.62
2023-04-22T09:38:11.123Z,21.29
2023-04-22T09:40:44.241Z,20.94
2023-04-22T09:43:12.560Z,21.15
2023-04-22T09:45:42.375Z,21.09
2023-04-22T09:48:18.658Z,21.31
2023-04-22T09:50:48.772Z,21.75
2023-04-22T09:53:18.501Z,21.76
2023-04-22T09:55:48.575Z,21.07
2023-04-22T09:58:18.591Z,20.75
2023-04-22T10:00:51.676Z,21.09
2023-04-22T10:03:19.772Z,21.01
2023-04-22T10:05:47.494Z,20.93
2023-04-22T10:08:16.678Z,21.08
2023-04-22T10:10:44.914Z,20.54
2023-04-22T10:13:12.824Z,20.69
2023-04-22T10:15:48.323Z,20.68
2023-04-22T10:18:22.928Z,20.48
2023-04-22T10:20:51.422Z,20.72
2023-04-22T10:23:21.781Z,20.54
2023-04-22T10:25:53.279Z,20.40
2023-04-22T10:28:23.285Z,20.64
2023-04-22T10:30:51.550Z,20.15
2023-04-22T10:33:21.916Z,20.45
2023-04-22T10:36:14.649Z,20.79
2023-04-22T10:38:54.392Z,20.24
2023-04-22T10:41:39.920Z,20.65
2023-04-22T10:44:09.016Z,20.83
2023-04-22T10:46:40.358Z,20.64
2023-04-22T10:49:13.164Z,21.02
2023-04-22T10:51:48.309Z,20.97
2023-04-22T10:54:31.452Z,21.24
2023-04-22T10:57:31.295Z,21.67
2023-04-22T11:00:00.788Z,21.64
2023-04-22T11:02:28.473Z,21.10
2023-04-22T11:05:26.313Z,20.87
2023-04-22T11:07:56.431Z,21.31
2023-04-22T11:10:51.264Z,20.96
2023-04-22T11:13:21.556Z,21.05
2023-04-22T11:15:55.053Z,21.10
2023-04-22T11:18:25.273Z,20.64
2023-04-22T11:20:54.281Z,20.90
2023-04-22T11:23:27.284Z,20.80
2023-04-22T11:26:00.684Z,20.75
2023-04-22T11:28:28.651Z,21.20
2023-04-22T11:31:06.609Z,21.14
2023-04-22T11:33:34.894Z,21.31
2023-04-22T11:36:02.633Z,21.07
2023-04-22T11:38:30.262Z,21.63
2023-04-22T11:40:58.561Z,21.44
2023-04-22T11:43:26.236Z,21.37
2023-04-22T11:45:56.557Z,21.24
2023-04-22T11:48:24.504Z,20.71
2023-04-22T11:51:12.260Z,21.10
2023-04-22T11:53:41.412Z,20.85
2023-04-22T11:56:08.911Z,20.78
2023-04-22T11:58:39.736Z,21.12
2023-04-22T12:01:12.398Z,21.17
2023-04-22T12:03:40.320Z,21.38
2023-04-22T12:06:07.919Z,21.25
2023-04-22T12:08:37.508Z,21.10
2023-04-22T12:11:07.720Z,21.08
2023-04-22T12:13:37.838Z,20.94
2023-04-22T12:16:10.306Z,21.29
2023-04-22T12:18:40.828Z,21.23
2023-04-22T12:21:09.897Z,21.57
2023-04-22T12:23:50.909Z,21.69
2023-04-22T12:26:20.370Z,21.52
2023-04-22T12:28:48.322Z,21.48
2023-04-22T12:31:16.405Z,21.26
2023-04-22T12:33:44.818Z,21.33
2023-04-22T12:36:12.816Z,21.18
2023-04-22T12:38:40.765Z,21.16
2023-04-22T12:41:08.509Z,21.20
2023-04-22T12:43:37.044Z,21.23
2023-04-22T12:46:06.157Z,21.42
2023-04-22T12:48:34.262Z,21.54
2023-04-22T12:51:01.767Z,21.74
2023-04-22T12:53:29.912Z,21.64
2023-04-22T12:55:57.825Z,21.40
2023-04-22T12:58:26.105Z,21.27
2023-04-22T13:00:53.683Z,21.35
2023-04-22T13:03:21.333Z,21.15
2023-04-22T13:05:49.039Z,21.27
2023-04-22T13:08:17.090Z,21.37
2023-04-22T13:10:44.650Z,21.14
2023-04-22T13:15:42.693Z,21.29
2023-04-22T13:18:10.213Z,21.43
2023-04-22T13:20:37.850Z,21.20
2023-04-22T13:23:05.335Z,21.23
2023-04-22T13:25:32.933Z,20.83
2023-04-22T13:28:00.545Z,20.82
2023-04-22T13:30:28.016Z,21.41
2023-04-22T13:32:55.706Z,21.36
2023-04-22T13:35:23.204Z,21.18
2023-04-22T13:37:51.106Z,21.15
2023-04-22T13:40:19.021Z,21.23
2023-04-22T13:42:46.678Z,21.18
2023-04-22T13:45:14.098Z,20.80
2023-04-22T13:47:41.590Z,21.04
2023-04-22T13:50:09.534Z,21.02
2023-04-22T13:52:37.214Z,20.93
2023-04-22T13:55:05.129Z,21.12
2023-04-22T13:57:32.653Z,20.96
2023-04-22T14:00:00.381Z,20.88
2023-04-22T14:02:27.999Z,20.42
2023-04-22T14:04:55.613Z,20.67
2023-04-22T14:07:23.738Z,20.63
2023-04-22T14:09:51.250Z,20.64
2023-04-22T14:12:18.734Z,20.63
2023-04-22T14:14:46.342Z,20.91
2023-04-22T14:17:13.901Z,20.99
2023-04-22T14:19:42.462Z,21.01
2023-04-22T14:22:10.075Z,21.05
2023-04-22T14:24:37.623Z,21.19
2023-04-22T14:27:05.319Z,21.22
2023-04-22T14:29:32.967Z,20.82
2023-04-22T14:32:00.534Z,20.39
2023-04-22T14:34:28.289Z,20.44
2023-04-22T14:36:55.932Z,20.44
2023-04-22T14:39:23.431Z,20.49
2023-04-22T14:41:51.591Z,20.48
2023-04-22T14:44:19.188Z,20.35
2023-04-22T14:46:46.704Z,20.65
2023-04-22T14:49:14.143Z,20.62
2023-04-22T14:51:41.883Z,20.80
2023-04-22T14:54:09.340Z,20.77
2023-04-22T14:56:36.778Z,20.82
2023-04-22T14:59:04.344Z,20.68
2023-04-22T15:01:32.462Z,20.62
2023-04-22T15:03:59.990Z,20.48
2023-04-22T15:06:28.474Z,20.40
2023-04-22T15:08:56.134Z,20.38
2023-04-22T15:11:23.602Z,20.42
2023-04-22T15:13:51.150Z,20.09
2023-04-22T15:16:18.765Z,20.18
2023-04-22T15:18:46.421Z,20.37
2023-04-22T15:21:14.040Z,20.15
2023-04-22T15:23:41.453Z,20.19
2023-04-22T15:26:08.969Z,20.22
2023-04-22T15:28:36.584Z,20.24
2023-04-22T15:31:04.074Z,19.85
2023-04-22T15:33:32.003Z,20.02
2023-04-22T15:35:59.465Z,20.09
2023-04-22T15:38:28.039Z,19.99
2023-04-22T15:40:55.517Z,19.88
2023-04-22T15:43:23.188Z,19.76
2023-04-22T15:45:50.760Z,19.48
2023-04-22T15:48:18.473Z,19.45
2023-04-22T15:50:47.321Z,19.46
2023-04-22T15:53:14.804Z,19.49
2023-04-22T15:55:42.324Z,19.31
2023-04-22T15:58:09.799Z,19.31
2023-04-22T16:00:37.407Z,19.19
2023-04-22T16:03:05.977Z,19.19
2023-04-22T16:05:34.860Z,19.14
2023-04-22T16:08:02.391Z,19.16
2023-04-22T16:10:29.925Z,18.96
2023-04-22T16:12:57.399Z,18.98
2023-04-22T16:15:26.334Z,18.88
2023-04-22T16:17:54.038Z,18.86
2023-04-22T16:20:21.705Z,18.84
2023-04-22T16:22:49.235Z,18.67
2023-04-22T16:25:16.618Z,18.62
2023-04-22T16:27:44.064Z,18.69
2023-04-22T16:30:14.272Z,18.53
2023-04-22T16:32:43.305Z,18.60
2023-04-22T16:35:11.357Z,18.53
2023-04-22T16:37:38.833Z,18.46
2023-04-22T16:40:07.124Z,18.52
2023-04-22T16:42:34.822Z,18.43
2023-04-22T16:45:02.421Z,18.41
2023-04-22T16:47:30.091Z,18.20
2023-04-22T16:49:57.676Z,18.11
2023-04-22T16:52:25.114Z,18.09
2023-04-22T16:54:52.792Z,18.06
2023-04-22T16:57:20.315Z,18.02
2023-04-22T16:59:47.771Z,18.07
2023-04-22T17:02:15.403Z,18.09
2023-04-22T17:04:42.940Z,18.07
2023-04-22T17:07:10.971Z,18.07
2023-04-22T17:09:38.688Z,18.01
2023-04-22T17:12:06.679Z,17.99
2023-04-22T17:14:34.150Z,17.95
2023-04-22T17:17:01.666Z,17.91
2023-04-22T17:19:29.148Z,17.90
2023-04-22T17:21:56.775Z,17.86
2023-04-22T17:24:25.020Z,17.85
2023-04-22T17:26:52.468Z,17.79
2023-04-22T17:29:21.901Z,17.77
2023-04-22T17:31:50.707Z,17.65
2023-04-22T17:34:18.355Z,17.65
2023-04-22T17:36:45.937Z,17.64
2023-04-22T17:39:13.419Z,17.61
2023-04-22T17:41:41.335Z,17.49
2023-04-22T17:44:09.130Z,17.45
2023-04-22T17:46:36.789Z,17.39
2023-04-22T17:49:04.283Z,17.31
2023-04-22T17:51:32.461Z,17.25
2023-04-22T17:54:01.225Z,17.12
2023-04-22T17:56:28.756Z,17.09
2023-04-22T17:58:56.306Z,17.02
2023-04-22T18:01:23.886Z,16.88
2023-04-22T18:03:51.874Z,16.79
2023-04-22T18:06:19.423Z,16.74
2023-04-22T18:08:46.825Z,16.63
2023-04-22T18:11:14.620Z,16.59
2023-04-22T18:13:42.499Z,16.48
2023-04-22T18:16:09.976Z,16.38
2023-04-22T18:18:37.580Z,16.34
2023-04-22T18:21:06.136Z,16.32
2023-04-22T18:23:35.181Z,16.25
2023-04-22T18:26:09.776Z,16.19
2023-04-22T18:28:40.155Z,16.14
2023-04-22T18:31:08.312Z,16.14
2023-04-22T18:33:36.627Z,16.05
2023-04-22T18:36:04.404Z,15.99
2023-04-22T18:38:32.008Z,15.91
2023-04-22T18:40:59.341Z,15.77
2023-04-22T18:43:27.048Z,15.66
2023-04-22T18:45:54.627Z,15.58
2023-04-22T18:48:22.522Z,15.52
2023-04-22T18:50:50.660Z,15.47
2023-04-22T18:53:18.165Z,15.35
2023-04-22T18:55:45.854Z,15.36
2023-04-22T18:58:13.705Z,15.32
2023-04-22T19:00:41.270Z,15.27
2023-04-22T19:03:08.842Z,15.24
2023-04-22T19:05:38.666Z,15.21
2023-04-22T19:08:06.050Z,15.17
2023-04-22T19:10:33.894Z,15.13
2023-04-22T19:13:01.382Z,15.13
2023-04-22T19:15:28.803Z,15.13
2023-04-22T19:17:56.383Z,15.07
2023-04-22T19:20:23.870Z,15.04
2023-04-22T19:22:51.572Z,15.02
2023-04-22T19:25:20.379Z,14.98
2023-04-22T19:27:47.820Z,14.96
2023-04-22T19:30:15.931Z,14.94
2023-04-22T19:32:43.528Z,14.94
2023-04-22T19:35:16.391Z,14.97
2023-04-22T19:37:45.753Z,14.97
2023-04-22T19:40:16.592Z,15.02
2023-04-22T19:42:45.579Z,15.05
2023-04-22T19:45:13.181Z,15.02
2023-04-22T19:47:41.188Z,14.99
2023-04-22T19:50:09.469Z,14.98
2023-04-22T19:52:37.166Z,14.98
2023-04-22T19:55:10.195Z,14.95
2023-04-22T19:57:39.263Z,14.95
2023-04-22T20:00:07.871Z,14.88
2023-04-22T20:02:42.722Z,14.84
2023-04-22T20:05:10.689Z,14.80
2023-04-22T20:07:40.053Z,14.78
2023-04-22T20:10:08.703Z,14.73
2023-04-22T20:12:37.300Z,14.66
2023-04-22T20:15:05.828Z,14.62
2023-04-22T20:17:39.280Z,14.68
2023-04-22T20:20:12.514Z,14.66
2023-04-22T20:22:41.984Z,14.61
2023-04-22T20:25:15.617Z,14.60
2023-04-22T20:27:43.745Z,14.58
2023-04-22T20:30:13.696Z,14.57
2023-04-22T20:32:42.048Z,14.58
2023-04-22T20:35:16.719Z,14.60
2023-04-22T20:37:46.676Z,14.54
2023-04-22T20:40:15.272Z,14.60
2023-04-22T20:42:42.866Z,14.65
2023-04-22T20:45:15.210Z,14.71
2023-04-22T20:47:43.029Z,14.65
2023-04-22T20:50:10.983Z,14.62
2023-04-22T20:52:39.211Z,14.59
2023-04-22T20:55:07.216Z,14.53
2023-04-22T20:57:35.402Z,14.54
2023-04-22T21:00:02.899Z,14.52
2023-04-22T21:02:31.861Z,14.56
2023-04-22T21:05:00.711Z,14.65
2023-04-22T21:07:30.863Z,14.70
2023-04-22T21:09:58.690Z,14.72
2023-04-22T21:12:26.436Z,14.68
2023-04-22T21:14:54.374Z,14.71
2023-04-22T21:17:26.498Z,14.79
2023-04-22T21:19:56.903Z,14.82
2023-04-22T21:22:25.590Z,14.73
2023-04-22T21:24:53.941Z,14.69
2023-04-22T21:27:22.576Z,14.74
2023-04-22T21:29:50.409Z,14.72
2023-04-22T21:32:20.256Z,14.71
2023-04-22T21:34:47.887Z,14.74
2023-04-22T21:37:15.533Z,14.74
2023-04-22T21:39:43.163Z,14.79
2023-04-22T21:42:10.636Z,14.76
2023-04-22T21:44:38.403Z,14.73
2023-04-22T21:47:06.874Z,14.72
2023-04-22T21:49:34.422Z,14.75
2023-04-22T21:52:01.912Z,14.76
2023-04-22T21:54:29.431Z,14.78
2023-04-22T21:56:57.709Z,14.76
2023-04-22T21:59:25.157Z,14.82
2023-04-22T22:01:53.193Z,14.86
2023-04-22T22:04:20.947Z,14.86
2023-04-22T22:06:49.106Z,14.82
2023-04-22T22:09:16.691Z,14.83
2023-04-22T22:11:44.222Z,14.82
2023-04-22T22:14:11.633Z,14.78
2023-04-22T22:16:39.431Z,14.81
2023-04-22T22:19:07.004Z,14.79
2023-04-22T22:21:34.800Z,14.76
2023-04-22T22:28:16.920Z,14.80
2023-04-22T22:30:44.468Z,14.82
2023-04-22T22:33:11.944Z,14.85
2023-04-22T22:35:39.406Z,14.85
2023-04-22T22:38:07.031Z,14.86
2023-04-22T22:40:34.541Z,14.94
2023-04-22T22:43:01.970Z,14.99
2023-04-22T22:45:29.743Z,15.08
2023-04-22T22:47:57.373Z,15.18
2023-04-22T22:50:24.878Z,15.26
2023-04-22T22:52:52.323Z,15.28
2023-04-22T22:55:19.801Z,15.34
2023-04-22T22:57:47.186Z,15.37
2023-04-22T23:00:15.083Z,15.34
2023-04-22T23:02:42.778Z,15.28
2023-04-22T23:05:11.187Z,15.28
2023-04-22T23:07:39.019Z,15.26
2023-04-22T23:10:07.521Z,15.23
2023-04-22T23:12:35.485Z,15.14
2023-04-22T23:15:03.024Z,15.20
2023-04-22T23:17:30.549Z,15.12
2023-04-22T23:19:58.992Z,15.12
2023-04-22T23:22:26.884Z,15.07
2023-04-22T23:24:54.695Z,15.04
2023-04-22T23:27:22.954Z,15.05
2023-04-22T23:29:50.664Z,15.03
2023-04-22T23:32:20.073Z,15.02
2023-04-22T23:34:49.774Z,14.97
2023-04-22T23:37:19.484Z,14.98
2023-04-22T23:39:47.095Z,15.00
2023-04-22T23:42:14.496Z,15.02
2023-04-22T23:44:42.258Z,15.00
2023-04-22T23:47:09.906Z,14.97
2023-04-22T23:49:37.552Z,14.98
2023-04-22T23:52:05.104Z,14.88
2023-04-22T23:54:32.794Z,14.88
2023-04-22T23:57:01.215Z,14.89
2023-04-22T23:59:28.916Z,14.92
